sensor_id;sensor_type;location;lat;lon;timestamp;temperature;humidity
20416;DHT22;10367;52.202;5.996;2023-05-02T00:01:20;11.10;99.90
20416;DHT22;10367;52.202;5.996;2023-05-02T00:03:48;11.20;99.90
20416;DHT22;10367;52.202;5.996;2023-05-02T00:06:17;11.20;99.90
20416;DHT22;10367;52.202;5.996;2023-05-02T00:08:47;11.10;99.90
20416;DHT22;10367;52.202;5.996;2023-05-02T00:11:16;11.20;99.90
20416;DHT22;10367;52.202;5.996;2023-05-02T00:13:45;11.20;99.90
20416;DHT22;10367;52.202;5.996;2023-05-02T00:16:13;11.20;99.90
20416;DHT22;10367;52.202;5.996;2023-05-02T00:18:44;11.20;99.90
20416;DHT22;10367;52.202;5.996;2023-05-02T00:21:12;11.20;99.90
20416;DHT22;10367;52.202;5.996;2023-05-02T00:23:41;11.10;99.90
20416;DHT22;10367;52.202;5.996;2023-05-02T00:26:10;11.10;99.90
20416;DHT22;10367;52.202;5.996;2023-05-02T00:28:40;11.10;99.90
20416;DHT22;10367;52.202;5.996;2023-05-02T00:31:09;11.10;99.90
20416;DHT22;10367;52.202;5.996;2023-05-02T00:33:37;11.10;99.90
20416;DHT22;10367;52.202;5.996;2023-05-02T00:36:14;11.10;99.90
20416;DHT22;10367;52.202;5.996;2023-05-02T00:38:43;11.10;99.90
20416;DHT22;10367;52.202;5.996;2023-05-02T00:41:12;11.00;99.90
20416;DHT22;10367;52.202;5.996;2023-05-02T00:43:40;11.10;99.90
20416;DHT22;10367;52.202;5.996;2023-05-02T00:46:09;11.10;99.90
20416;DHT22;10367;52.202;5.996;2023-05-02T00:48:39;11.10;99.90
20416;DHT22;10367;52.202;5.996;2023-05-02T00:51:08;11.10;99.90
20416;DHT22;10367;52.202;5.996;2023-05-02T00:53:40;11.10;99.90
20416;DHT22;10367;52.202;5.996;2023-05-02T00:56:08;11.10;99.90
20416;DHT22;10367;52.202;5.996;2023-05-02T00:58:38;11.10;99.90
20416;DHT22;10367;52.202;5.996;2023-05-02T01:01:20;11.10;99.90
20416;DHT22;10367;52.202;5.996;2023-05-02T01:03:59;11.00;99.90
20416;DHT22;10367;52.202;5.996;2023-05-02T01:06:38;11.00;99.90
20416;DHT22;10367;52.202;5.996;2023-05-02T01:09:21;11.00;99.90
20416;DHT22;10367;52.202;5.996;2023-05-02T01:11:58;11.00;99.90
20416;DHT22;10367;52.202;5.996;2023-05-02T01:14:32;11.00;99.90
20416;DHT22;10367;52.202;5.996;2023-05-02T01:17:04;10.90;99.90
20416;DHT22;10367;52.202;5.996;2023-05-02T01:19:36;11.00;99.90
20416;DHT22;10367;52.202;5.996;2023-05-02T01:22:08;11.00;99.90
20416;DHT22;10367;52.202;5.996;2023-05-02T01:24:50;11.00;99.90
20416;DHT22;10367;52.202;5.996;2023-05-02T01:27:35;11.00;99.90
20416;DHT22;10367;52.202;5.996;2023-05-02T01:30:11;10.90;99.90
20416;DHT22;10367;52.202;5.996;2023-05-02T01:32:44;10.70;99.90
20416;DHT22;10367;52.202;5.996;2023-05-02T01:35:14;10.60;99.90
20416;DHT22;10367;52.202;5.996;2023-05-02T01:37:44;10.50;99.90
20416;DHT22;10367;52.202;5.996;2023-05-02T01:40:18;10.50;99.90
20416;DHT22;10367;52.202;5.996;2023-05-02T01:42:48;10.50;99.90
20416;DHT22;10367;52.202;5.996;2023-05-02T01:45:20;10.50;99.90
20416;DHT22;10367;52.202;5.996;2023-05-02T01:47:50;10.50;99.90
20416;DHT22;10367;52.202;5.996;2023-05-02T01:50:23;10.40;99.90
20416;DHT22;10367;52.202;5.996;2023-05-02T01:52:54;10.40;99.90
20416;DHT22;10367;52.202;5.996;2023-05-02T01:55:23;10.50;99.90
20416;DHT22;10367;52.202;5.996;2023-05-02T01:57:53;10.40;99.90
20416;DHT22;10367;52.202;5.996;2023-05-02T02:00:25;10.30;99.90
20416;DHT22;10367;52.202;5.996;2023-05-02T02:02:56;10.30;99.90
20416;DHT22;10367;52.202;5.996;2023-05-02T02:05:28;10.30;99.90
20416;DHT22;10367;52.202;5.996;2023-05-02T02:07:57;10.30;99.90
20416;DHT22;10367;52.202;5.996;2023-05-02T02:10:28;10.30;99.90
20416;DHT22;10367;52.202;5.996;2023-05-02T02:13:05;10.30;99.90
20416;DHT22;10367;52.202;5.996;2023-05-02T02:15:37;10.20;99.90
20416;DHT22;10367;52.202;5.996;2023-05-02T02:18:10;10.20;99.90
20416;DHT22;10367;52.202;5.996;2023-05-02T02:20:43;10.20;99.90
20416;DHT22;10367;52.202;5.996;2023-05-02T02:23:14;10.20;99.90
20416;DHT22;10367;52.202;5.996;2023-05-02T02:25:44;10.30;99.90
20416;DHT22;10367;52.202;5.996;2023-05-02T02:28:13;10.20;99.90
20416;DHT22;10367;52.202;5.996;2023-05-02T02:30:43;10.20;99.90
20416;DHT22;10367;52.202;5.996;2023-05-02T02:33:12;10.20;99.90
20416;DHT22;10367;52.202;5.996;2023-05-02T02:35:43;10.20;99.90
20416;DHT22;10367;52.202;5.996;2023-05-02T02:38:25;10.20;99.90
20416;DHT22;10367;52.202;5.996;2023-05-02T02:40:56;10.10;99.90
20416;DHT22;10367;52.202;5.996;2023-05-02T02:43:35;10.10;99.90
20416;DHT22;10367;52.202;5.996;2023-05-02T02:46:18;10.20;99.90
20416;DHT22;10367;52.202;5.996;2023-05-02T02:48:59;10.20;99.90
20416;DHT22;10367;52.202;5.996;2023-05-02T02:51:37;10.20;99.90
20416;DHT22;10367;52.202;5.996;2023-05-02T02:54:12;10.10;99.90
20416;DHT22;10367;52.202;5.996;2023-05-02T02:56:58;10.10;99.90
20416;DHT22;10367;52.202;5.996;2023-05-02T02:59:31;10.10;99.90
20416;DHT22;10367;52.202;5.996;2023-05-02T03:02:07;10.10;99.90
20416;DHT22;10367;52.202;5.996;2023-05-02T03:04:39;10.10;99.90
20416;DHT22;10367;52.202;5.996;2023-05-02T03:07:08;10.10;99.90
20416;DHT22;10367;52.202;5.996;2023-05-02T03:09:41;10.10;99.90
20416;DHT22;10367;52.202;5.996;2023-05-02T03:12:10;10.10;99.90
20416;DHT22;10367;52.202;5.996;2023-05-02T03:14:39;10.10;99.90
20416;DHT22;10367;52.202;5.996;2023-05-02T03:17:09;10.10;99.90
20416;DHT22;10367;52.202;5.996;2023-05-02T03:19:38;10.10;99.90
20416;DHT22;10367;52.202;5.996;2023-05-02T03:22:07;10.10;99.90
20416;DHT22;10367;52.202;5.996;2023-05-02T03:24:36;10.10;99.90
20416;DHT22;10367;52.202;5.996;2023-05-02T03:27:04;10.10;99.90
20416;DHT22;10367;52.202;5.996;2023-05-02T03:29:33;10.10;99.90
20416;DHT22;10367;52.202;5.996;2023-05-02T03:32:02;10.10;99.90
20416;DHT22;10367;52.202;5.996;2023-05-02T03:34:35;10.10;99.90
20416;DHT22;10367;52.202;5.996;2023-05-02T03:37:04;10.10;99.90
20416;DHT22;10367;52.202;5.996;2023-05-02T03:39:32;10.10;99.90
20416;DHT22;10367;52.202;5.996;2023-05-02T03:42:04;10.10;99.90
20416;DHT22;10367;52.202;5.996;2023-05-02T03:44:35;10.10;99.90
20416;DHT22;10367;52.202;5.996;2023-05-02T03:47:04;10.10;99.90
20416;DHT22;10367;52.202;5.996;2023-05-02T03:49:34;10.10;99.90
20416;DHT22;10367;52.202;5.996;2023-05-02T03:52:03;10.10;99.90
20416;DHT22;10367;52.202;5.996;2023-05-02T03:54:32;10.00;99.90
20416;DHT22;10367;52.202;5.996;2023-05-02T03:57:00;10.00;99.90
20416;DHT22;10367;52.202;5.996;2023-05-02T03:59:34;9.90;99.90
20416;DHT22;10367;52.202;5.996;2023-05-02T04:02:03;9.80;99.90
20416;DHT22;10367;52.202;5.996;2023-05-02T04:04:32;9.80;99.90
20416;DHT22;10367;52.202;5.996;2023-05-02T04:07:02;9.80;99.90
20416;DHT22;10367;52.202;5.996;2023-05-02T04:09:31;9.70;99.90
20416;DHT22;10367;52.202;5.996;2023-05-02T04:12:00;9.80;99.90
20416;DHT22;10367;52.202;5.996;2023-05-02T04:14:29;9.70;99.90
20416;DHT22;10367;52.202;5.996;2023-05-02T04:16:58;9.70;99.90
20416;DHT22;10367;52.202;5.996;2023-05-02T04:19:26;9.70;99.90
20416;DHT22;10367;52.202;5.996;2023-05-02T04:21:55;9.60;99.90
20416;DHT22;10367;52.202;5.996;2023-05-02T04:24:25;9.50;99.90
20416;DHT22;10367;52.202;5.996;2023-05-02T04:26:54;9.50;99.90
20416;DHT22;10367;52.202;5.996;2023-05-02T04:29:23;9.40;99.90
20416;DHT22;10367;52.202;5.996;2023-05-02T04:31:52;9.40;99.90
20416;DHT22;10367;52.202;5.996;2023-05-02T04:34:21;9.30;99.90
20416;DHT22;10367;52.202;5.996;2023-05-02T04:36:49;9.30;99.90
20416;DHT22;10367;52.202;5.996;2023-05-02T04:39:19;9.30;99.90
20416;DHT22;10367;52.202;5.996;2023-05-02T04:41:49;9.30;99.90
20416;DHT22;10367;52.202;5.996;2023-05-02T04:44:18;9.30;99.90
20416;DHT22;10367;52.202;5.996;2023-05-02T04:46:47;9.20;99.90
20416;DHT22;10367;52.202;5.996;2023-05-02T04:49:16;9.30;99.90
20416;DHT22;10367;52.202;5.996;2023-05-02T04:51:44;9.30;99.90
20416;DHT22;10367;52.202;5.996;2023-05-02T04:54:13;9.20;99.90
20416;DHT22;10367;52.202;5.996;2023-05-02T04:56:42;9.20;99.90
20416;DHT22;10367;52.202;5.996;2023-05-02T04:59:12;9.10;99.90
20416;DHT22;10367;52.202;5.996;2023-05-02T05:01:41;9.10;99.90
20416;DHT22;10367;52.202;5.996;2023-05-02T05:04:11;9.10;99.90
20416;DHT22;10367;52.202;5.996;2023-05-02T05:06:41;9.20;99.90
20416;DHT22;10367;52.202;5.996;2023-05-02T05:09:10;9.20;99.90
20416;DHT22;10367;52.202;5.996;2023-05-02T05:11:39;9.20;99.90
20416;DHT22;10367;52.202;5.996;2023-05-02T05:14:13;9.10;99.90
20416;DHT22;10367;52.202;5.996;2023-05-02T05:16:44;9.20;99.90
20416;DHT22;10367;52.202;5.996;2023-05-02T05:19:13;9.10;99.90
20416;DHT22;10367;52.202;5.996;2023-05-02T05:21:42;9.20;99.90
20416;DHT22;10367;52.202;5.996;2023-05-02T05:24:12;9.10;99.90
20416;DHT22;10367;52.202;5.996;2023-05-02T05:26:43;9.20;99.90
20416;DHT22;10367;52.202;5.996;2023-05-02T05:29:18;9.20;99.90
20416;DHT22;10367;52.202;5.996;2023-05-02T05:31:47;9.10;99.90
20416;DHT22;10367;52.202;5.996;2023-05-02T05:34:15;9.20;99.90
20416;DHT22;10367;52.202;5.996;2023-05-02T05:36:45;9.10;99.90
20416;DHT22;10367;52.202;5.996;2023-05-02T05:39:13;9.10;99.90
20416;DHT22;10367;52.202;5.996;2023-05-02T05:41:42;9.00;99.90
20416;DHT22;10367;52.202;5.996;2023-05-02T05:44:11;9.10;99.90
20416;DHT22;10367;52.202;5.996;2023-05-02T05:46:41;9.10;99.90
20416;DHT22;10367;52.202;5.996;2023-05-02T05:49:10;9.10;99.90
20416;DHT22;10367;52.202;5.996;2023-05-02T05:51:39;9.10;99.90
20416;DHT22;10367;52.202;5.996;2023-05-02T05:54:08;9.10;99.90
20416;DHT22;10367;52.202;5.996;2023-05-02T05:56:36;9.20;99.90
20416;DHT22;10367;52.202;5.996;2023-05-02T05:59:05;9.20;99.90
20416;DHT22;10367;52.202;5.996;2023-05-02T06:01:33;9.20;99.90
20416;DHT22;10367;52.202;5.996;2023-05-02T06:04:04;9.20;99.90
20416;DHT22;10367;52.202;5.996;2023-05-02T06:06:33;9.10;99.90
20416;DHT22;10367;52.202;5.996;2023-05-02T06:09:02;9.10;99.90
20416;DHT22;10367;52.202;5.996;2023-05-02T06:11:35;9.10;99.90
20416;DHT22;10367;52.202;5.996;2023-05-02T06:14:04;9.10;99.90
20416;DHT22;10367;52.202;5.996;2023-05-02T06:16:33;9.10;99.90
20416;DHT22;10367;52.202;5.996;2023-05-02T06:19:02;9.20;99.90
20416;DHT22;10367;52.202;5.996;2023-05-02T06:21:35;9.20;99.90
20416;DHT22;10367;52.202;5.996;2023-05-02T06:24:04;9.20;99.90
20416;DHT22;10367;52.202;5.996;2023-05-02T06:26:33;9.40;99.90
20416;DHT22;10367;52.202;5.996;2023-05-02T06:29:01;9.40;99.90
20416;DHT22;10367;52.202;5.996;2023-05-02T06:31:30;9.50;99.90
20416;DHT22;10367;52.202;5.996;2023-05-02T06:33:59;9.50;99.90
20416;DHT22;10367;52.202;5.996;2023-05-02T06:36:27;9.50;99.90
20416;DHT22;10367;52.202;5.996;2023-05-02T06:38:57;9.50;99.90
20416;DHT22;10367;52.202;5.996;2023-05-02T06:41:26;9.50;99.90
20416;DHT22;10367;52.202;5.996;2023-05-02T06:43:55;9.40;99.90
20416;DHT22;10367;52.202;5.996;2023-05-02T06:46:27;9.40;99.90
20416;DHT22;10367;52.202;5.996;2023-05-02T06:48:57;9.50;99.90
20416;DHT22;10367;52.202;5.996;2023-05-02T06:51:25;9.50;99.90
20416;DHT22;10367;52.202;5.996;2023-05-02T06:53:54;9.50;99.90
20416;DHT22;10367;52.202;5.996;2023-05-02T06:56:24;9.70;99.90
20416;DHT22;10367;52.202;5.996;2023-05-02T06:58:53;9.80;99.90
20416;DHT22;10367;52.202;5.996;2023-05-02T07:01:22;9.80;99.90
20416;DHT22;10367;52.202;5.996;2023-05-02T07:03:50;9.90;99.90
20416;DHT22;10367;52.202;5.996;2023-05-02T07:06:19;9.80;99.90
20416;DHT22;10367;52.202;5.996;2023-05-02T07:08:48;9.60;99.90
20416;DHT22;10367;52.202;5.996;2023-05-02T07:11:17;9.40;99.90
20416;DHT22;10367;52.202;5.996;2023-05-02T07:13:47;9.20;99.90
20416;DHT22;10367;52.202;5.996;2023-05-02T07:16:16;8.90;99.90
20416;DHT22;10367;52.202;5.996;2023-05-02T07:18:45;8.80;99.90
20416;DHT22;10367;52.202;5.996;2023-05-02T07:21:14;8.80;99.90
20416;DHT22;10367;52.202;5.996;2023-05-02T07:23:44;8.90;99.90
20416;DHT22;10367;52.202;5.996;2023-05-02T07:26:13;9.10;99.90
20416;DHT22;10367;52.202;5.996;2023-05-02T07:28:42;9.20;99.90
20416;DHT22;10367;52.202;5.996;2023-05-02T07:31:12;9.40;99.90
20416;DHT22;10367;52.202;5.996;2023-05-02T07:33:41;9.60;99.90
20416;DHT22;10367;52.202;5.996;2023-05-02T07:36:09;9.70;99.90
20416;DHT22;10367;52.202;5.996;2023-05-02T07:38:41;9.90;99.90
20416;DHT22;10367;52.202;5.996;2023-05-02T07:41:10;10.00;99.90
20416;DHT22;10367;52.202;5.996;2023-05-02T07:43:40;10.30;99.90
20416;DHT22;10367;52.202;5.996;2023-05-02T07:46:09;10.30;99.90
20416;DHT22;10367;52.202;5.996;2023-05-02T07:48:39;10.30;99.90
20416;DHT22;10367;52.202;5.996;2023-05-02T07:51:09;10.30;99.90
20416;DHT22;10367;52.202;5.996;2023-05-02T07:53:38;10.40;99.90
20416;DHT22;10367;52.202;5.996;2023-05-02T07:56:07;10.60;99.90
20416;DHT22;10367;52.202;5.996;2023-05-02T07:58:36;10.80;99.90
20416;DHT22;10367;52.202;5.996;2023-05-02T08:01:04;10.80;99.90
20416;DHT22;10367;52.202;5.996;2023-05-02T08:03:34;10.90;99.90
20416;DHT22;10367;52.202;5.996;2023-05-02T08:06:04;10.90;99.90
20416;DHT22;10367;52.202;5.996;2023-05-02T08:08:33;10.90;99.90
20416;DHT22;10367;52.202;5.996;2023-05-02T08:11:02;11.00;99.90
20416;DHT22;10367;52.202;5.996;2023-05-02T08:13:30;11.00;99.90
20416;DHT22;10367;52.202;5.996;2023-05-02T08:15:59;11.10;99.90
20416;DHT22;10367;52.202;5.996;2023-05-02T08:18:28;11.30;99.90
20416;DHT22;10367;52.202;5.996;2023-05-02T08:20:57;11.40;99.90
20416;DHT22;10367;52.202;5.996;2023-05-02T08:23:27;11.20;99.90
20416;DHT22;10367;52.202;5.996;2023-05-02T08:25:56;11.30;99.90
20416;DHT22;10367;52.202;5.996;2023-05-02T08:28:24;11.30;99.90
20416;DHT22;10367;52.202;5.996;2023-05-02T08:30:53;11.30;99.90
20416;DHT22;10367;52.202;5.996;2023-05-02T08:33:22;11.30;99.90
20416;DHT22;10367;52.202;5.996;2023-05-02T08:35:51;11.30;99.90
20416;DHT22;10367;52.202;5.996;2023-05-02T08:38:20;11.40;99.90
20416;DHT22;10367;52.202;5.996;2023-05-02T08:40:50;11.50;99.90
20416;DHT22;10367;52.202;5.996;2023-05-02T08:43:19;11.50;99.90
20416;DHT22;10367;52.202;5.996;2023-05-02T08:45:49;11.60;99.90
20416;DHT22;10367;52.202;5.996;2023-05-02T08:48:20;11.80;99.90
20416;DHT22;10367;52.202;5.996;2023-05-02T08:50:51;11.90;99.90
20416;DHT22;10367;52.202;5.996;2023-05-02T08:53:20;11.60;99.90
20416;DHT22;10367;52.202;5.996;2023-05-02T08:55:52;11.40;99.90
20416;DHT22;10367;52.202;5.996;2023-05-02T08:58:20;11.20;99.90
20416;DHT22;10367;52.202;5.996;2023-05-02T09:00:50;11.30;99.90
20416;DHT22;10367;52.202;5.996;2023-05-02T09:03:26;11.80;99.90
20416;DHT22;10367;52.202;5.996;2023-05-02T09:06:06;12.30;99.90
20416;DHT22;10367;52.202;5.996;2023-05-02T09:08:37;12.10;99.90
20416;DHT22;10367;52.202;5.996;2023-05-02T09:11:08;11.90;99.90
20416;DHT22;10367;52.202;5.996;2023-05-02T09:13:38;11.80;99.90
20416;DHT22;10367;52.202;5.996;2023-05-02T09:16:09;11.80;99.90
20416;DHT22;10367;52.202;5.996;2023-05-02T09:18:39;11.90;99.90
20416;DHT22;10367;52.202;5.996;2023-05-02T09:21:10;12.00;99.90
20416;DHT22;10367;52.202;5.996;2023-05-02T09:23:40;12.00;99.90
20416;DHT22;10367;52.202;5.996;2023-05-02T09:26:18;12.10;99.90
20416;DHT22;10367;52.202;5.996;2023-05-02T09:28:48;12.40;99.90
20416;DHT22;10367;52.202;5.996;2023-05-02T09:31:19;12.40;99.90
20416;DHT22;10367;52.202;5.996;2023-05-02T09:33:52;12.70;99.90
20416;DHT22;10367;52.202;5.996;2023-05-02T09:36:23;12.70;99.90
20416;DHT22;10367;52.202;5.996;2023-05-02T09:38:52;12.40;99.90
20416;DHT22;10367;52.202;5.996;2023-05-02T09:41:40;12.20;99.90
20416;DHT22;10367;52.202;5.996;2023-05-02T09:44:10;12.10;99.90
20416;DHT22;10367;52.202;5.996;2023-05-02T09:46:40;12.50;99.90
20416;DHT22;10367;52.202;5.996;2023-05-02T09:49:09;12.60;99.90
20416;DHT22;10367;52.202;5.996;2023-05-02T09:51:38;12.50;99.90
20416;DHT22;10367;52.202;5.996;2023-05-02T09:54:06;12.20;99.90
20416;DHT22;10367;52.202;5.996;2023-05-02T09:56:54;12.40;99.90
20416;DHT22;10367;52.202;5.996;2023-05-02T09:59:24;12.60;99.90
20416;DHT22;10367;52.202;5.996;2023-05-02T10:01:54;12.60;99.90
20416;DHT22;10367;52.202;5.996;2023-05-02T10:04:25;12.40;99.90
20416;DHT22;10367;52.202;5.996;2023-05-02T10:06:54;12.20;99.90
20416;DHT22;10367;52.202;5.996;2023-05-02T10:09:24;11.90;99.90
20416;DHT22;10367;52.202;5.996;2023-05-02T10:11:55;12.10;99.90
20416;DHT22;10367;52.202;5.996;2023-05-02T10:14:25;12.70;99.90
20416;DHT22;10367;52.202;5.996;2023-05-02T10:17:03;12.80;99.90
20416;DHT22;10367;52.202;5.996;2023-05-02T10:19:38;13.50;99.90
20416;DHT22;10367;52.202;5.996;2023-05-02T10:22:09;13.70;99.90
20416;DHT22;10367;52.202;5.996;2023-05-02T10:24:39;13.30;99.90
20416;DHT22;10367;52.202;5.996;2023-05-02T10:27:10;13.20;99.90
20416;DHT22;10367;52.202;5.996;2023-05-02T10:29:39;13.30;99.90
20416;DHT22;10367;52.202;5.996;2023-05-02T10:32:10;13.00;99.90
20416;DHT22;10367;52.202;5.996;2023-05-02T10:34:39;12.70;99.90
20416;DHT22;10367;52.202;5.996;2023-05-02T10:37:08;12.90;99.90
20416;DHT22;10367;52.202;5.996;2023-05-02T10:39:38;13.20;99.90
20416;DHT22;10367;52.202;5.996;2023-05-02T10:42:07;13.10;99.90
20416;DHT22;10367;52.202;5.996;2023-05-02T10:44:39;13.30;99.90
20416;DHT22;10367;52.202;5.996;2023-05-02T10:47:17;13.30;99.90
20416;DHT22;10367;52.202;5.996;2023-05-02T10:49:51;13.50;99.90
20416;DHT22;10367;52.202;5.996;2023-05-02T10:52:28;13.70;99.90
20416;DHT22;10367;52.202;5.996;2023-05-02T10:55:19;13.70;99.90
20416;DHT22;10367;52.202;5.996;2023-05-02T10:58:20;13.90;99.90
20416;DHT22;10367;52.202;5.996;2023-05-02T11:00:53;14.10;99.90
20416;DHT22;10367;52.202;5.996;2023-05-02T11:03:55;13.70;99.90
20416;DHT22;10367;52.202;5.996;2023-05-02T11:06:27;13.40;99.90
20416;DHT22;10367;52.202;5.996;2023-05-02T11:09:29;13.80;99.90
20416;DHT22;10367;52.202;5.996;2023-05-02T11:11:58;14.30;99.90
20416;DHT22;10367;52.202;5.996;2023-05-02T11:14:45;14.80;99.20
20416;DHT22;10367;52.202;5.996;2023-05-02T11:17:18;14.40;98.50
20416;DHT22;10367;52.202;5.996;2023-05-02T11:22:57;13.70;99.60
20416;DHT22;10367;52.202;5.996;2023-05-02T11:25:44;13.70;99.70
20416;DHT22;10367;52.202;5.996;2023-05-02T11:28:43;13.40;99.00
20416;DHT22;10367;52.202;5.996;2023-05-02T11:34:18;13.70;97.90
20416;DHT22;10367;52.202;5.996;2023-05-02T11:36:46;14.10;98.10
20416;DHT22;10367;52.202;5.996;2023-05-02T11:39:19;14.30;98.00
20416;DHT22;10367;52.202;5.996;2023-05-02T11:41:48;14.70;97.40
20416;DHT22;10367;52.202;5.996;2023-05-02T11:44:17;15.10;96.40
20416;DHT22;10367;52.202;5.996;2023-05-02T11:46:46;15.10;96.30
20416;DHT22;10367;52.202;5.996;2023-05-02T11:49:15;15.90;95.70
20416;DHT22;10367;52.202;5.996;2023-05-02T11:51:45;16.00;95.30
20416;DHT22;10367;52.202;5.996;2023-05-02T11:54:18;15.50;95.80
20416;DHT22;10367;52.202;5.996;2023-05-02T11:56:47;15.10;96.20
20416;DHT22;10367;52.202;5.996;2023-05-02T11:59:17;14.50;96.80
20416;DHT22;10367;52.202;5.996;2023-05-02T12:01:48;14.00;97.10
20416;DHT22;10367;52.202;5.996;2023-05-02T12:04:19;13.90;96.90
20416;DHT22;10367;52.202;5.996;2023-05-02T12:06:55;14.00;96.80
20416;DHT22;10367;52.202;5.996;2023-05-02T12:09:24;14.20;95.90
20416;DHT22;10367;52.202;5.996;2023-05-02T12:11:53;14.40;95.80
20416;DHT22;10367;52.202;5.996;2023-05-02T12:14:28;13.90;95.10
20416;DHT22;10367;52.202;5.996;2023-05-02T12:17:00;13.60;96.00
20416;DHT22;10367;52.202;5.996;2023-05-02T12:19:28;14.00;96.00
20416;DHT22;10367;52.202;5.996;2023-05-02T12:21:59;14.50;95.30
20416;DHT22;10367;52.202;5.996;2023-05-02T12:24:27;15.00;94.70
20416;DHT22;10367;52.202;5.996;2023-05-02T12:27:09;15.00;94.40
20416;DHT22;10367;52.202;5.996;2023-05-02T12:29:39;14.80;94.40
20416;DHT22;10367;52.202;5.996;2023-05-02T12:32:08;14.30;95.00
20416;DHT22;10367;52.202;5.996;2023-05-02T12:34:38;14.30;94.90
20416;DHT22;10367;52.202;5.996;2023-05-02T12:37:08;14.30;95.00
20416;DHT22;10367;52.202;5.996;2023-05-02T12:39:39;14.40;94.90
20416;DHT22;10367;52.202;5.996;2023-05-02T12:42:09;14.70;94.30
20416;DHT22;10367;52.202;5.996;2023-05-02T12:44:39;15.00;93.90
20416;DHT22;10367;52.202;5.996;2023-05-02T12:47:09;15.00;93.60
20416;DHT22;10367;52.202;5.996;2023-05-02T12:49:48;15.10;93.60
20416;DHT22;10367;52.202;5.996;2023-05-02T12:52:19;15.50;92.90
20416;DHT22;10367;52.202;5.996;2023-05-02T12:54:47;15.70;93.00
20416;DHT22;10367;52.202;5.996;2023-05-02T12:57:23;15.60;93.10
20416;DHT22;10367;52.202;5.996;2023-05-02T12:59:52;15.80;93.00
20416;DHT22;10367;52.202;5.996;2023-05-02T13:02:21;16.30;92.60
20416;DHT22;10367;52.202;5.996;2023-05-02T13:04:50;16.00;92.50
20416;DHT22;10367;52.202;5.996;2023-05-02T13:07:20;15.80;92.70
20416;DHT22;10367;52.202;5.996;2023-05-02T13:09:49;15.40;93.00
20416;DHT22;10367;52.202;5.996;2023-05-02T13:12:17;15.20;92.70
20416;DHT22;10367;52.202;5.996;2023-05-02T13:14:46;15.30;92.90
20416;DHT22;10367;52.202;5.996;2023-05-02T13:17:15;15.00;92.60
20416;DHT22;10367;52.202;5.996;2023-05-02T13:19:43;14.70;92.90
20416;DHT22;10367;52.202;5.996;2023-05-02T13:22:29;14.70;93.10
20416;DHT22;10367;52.202;5.996;2023-05-02T13:24:58;14.80;93.00
20416;DHT22;10367;52.202;5.996;2023-05-02T13:27:27;15.00;92.80
20416;DHT22;10367;52.202;5.996;2023-05-02T13:29:56;15.30;92.20
20416;DHT22;10367;52.202;5.996;2023-05-02T13:32:24;15.20;92.00
20416;DHT22;10367;52.202;5.996;2023-05-02T13:34:53;15.00;91.90
20416;DHT22;10367;52.202;5.996;2023-05-02T13:37:22;14.80;91.80
20416;DHT22;10367;52.202;5.996;2023-05-02T13:39:52;14.90;91.80
20416;DHT22;10367;52.202;5.996;2023-05-02T13:42:20;14.80;91.30
20416;DHT22;10367;52.202;5.996;2023-05-02T13:44:49;14.70;91.20
20416;DHT22;10367;52.202;5.996;2023-05-02T13:47:18;15.20;90.90
20416;DHT22;10367;52.202;5.996;2023-05-02T13:49:51;15.80;90.00
20416;DHT22;10367;52.202;5.996;2023-05-02T13:52:20;15.60;89.70
20416;DHT22;10367;52.202;5.996;2023-05-02T13:54:48;15.40;87.80
20416;DHT22;10367;52.202;5.996;2023-05-02T13:57:18;15.60;89.10
20416;DHT22;10367;52.202;5.996;2023-05-02T13:59:47;16.00;88.90
20416;DHT22;10367;52.202;5.996;2023-05-02T14:02:16;15.80;88.00
20416;DHT22;10367;52.202;5.996;2023-05-02T14:04:45;15.40;88.60
20416;DHT22;10367;52.202;5.996;2023-05-02T14:07:13;15.80;89.00
20416;DHT22;10367;52.202;5.996;2023-05-02T14:09:42;15.90;88.70
20416;DHT22;10367;52.202;5.996;2023-05-02T14:12:11;15.90;87.90
20416;DHT22;10367;52.202;5.996;2023-05-02T14:14:41;15.90;88.50
20416;DHT22;10367;52.202;5.996;2023-05-02T14:17:09;15.80;87.70
20416;DHT22;10367;52.202;5.996;2023-05-02T14:19:38;16.00;88.60
20416;DHT22;10367;52.202;5.996;2023-05-02T14:22:07;16.10;87.70
20416;DHT22;10367;52.202;5.996;2023-05-02T14:24:35;15.90;87.80
20416;DHT22;10367;52.202;5.996;2023-05-02T14:27:04;15.70;87.30
20416;DHT22;10367;52.202;5.996;2023-05-02T14:29:33;15.80;87.50
20416;DHT22;10367;52.202;5.996;2023-05-02T14:32:04;15.60;87.90
20416;DHT22;10367;52.202;5.996;2023-05-02T14:34:33;15.80;87.40
20416;DHT22;10367;52.202;5.996;2023-05-02T14:37:01;15.90;86.80
20416;DHT22;10367;52.202;5.996;2023-05-02T14:39:30;16.00;86.20
20416;DHT22;10367;52.202;5.996;2023-05-02T14:41:59;15.70;86.80
20416;DHT22;10367;52.202;5.996;2023-05-02T14:44:29;15.70;85.50
20416;DHT22;10367;52.202;5.996;2023-05-02T14:46:58;15.70;86.40
20416;DHT22;10367;52.202;5.996;2023-05-02T14:49:28;15.70;86.80
20416;DHT22;10367;52.202;5.996;2023-05-02T14:51:57;15.60;86.00
20416;DHT22;10367;52.202;5.996;2023-05-02T14:54:26;16.10;86.20
20416;DHT22;10367;52.202;5.996;2023-05-02T14:56:56;16.40;84.20
20416;DHT22;10367;52.202;5.996;2023-05-02T14:59:27;16.20;84.10
20416;DHT22;10367;52.202;5.996;2023-05-02T15:01:56;15.90;84.30
20416;DHT22;10367;52.202;5.996;2023-05-02T15:04:25;15.50;85.90
20416;DHT22;10367;52.202;5.996;2023-05-02T15:06:56;15.40;86.30
20416;DHT22;10367;52.202;5.996;2023-05-02T15:09:25;15.30;85.40
20416;DHT22;10367;52.202;5.996;2023-05-02T15:11:54;15.50;86.10
20416;DHT22;10367;52.202;5.996;2023-05-02T15:14:22;16.00;85.10
20416;DHT22;10367;52.202;5.996;2023-05-02T15:16:51;15.90;85.10
20416;DHT22;10367;52.202;5.996;2023-05-02T15:19:20;16.00;84.80
20416;DHT22;10367;52.202;5.996;2023-05-02T15:21:51;15.60;85.50
20416;DHT22;10367;52.202;5.996;2023-05-02T15:24:25;15.10;85.70
20416;DHT22;10367;52.202;5.996;2023-05-02T15:26:54;14.60;86.60
20416;DHT22;10367;52.202;5.996;2023-05-02T15:29:22;14.50;87.00
20416;DHT22;10367;52.202;5.996;2023-05-02T15:31:51;14.30;87.00
20416;DHT22;10367;52.202;5.996;2023-05-02T15:34:20;14.30;87.60
20416;DHT22;10367;52.202;5.996;2023-05-02T15:36:49;14.20;86.90
20416;DHT22;10367;52.202;5.996;2023-05-02T15:39:18;13.90;87.30
20416;DHT22;10367;52.202;5.996;2023-05-02T15:41:50;13.90;87.80
20416;DHT22;10367;52.202;5.996;2023-05-02T15:44:19;14.10;87.50
20416;DHT22;10367;52.202;5.996;2023-05-02T15:46:48;14.60;86.90
20416;DHT22;10367;52.202;5.996;2023-05-02T15:49:17;14.60;86.40
20416;DHT22;10367;52.202;5.996;2023-05-02T15:51:45;14.50;86.20
20416;DHT22;10367;52.202;5.996;2023-05-02T15:54:14;14.40;86.70
20416;DHT22;10367;52.202;5.996;2023-05-02T15:56:42;14.50;86.70
20416;DHT22;10367;52.202;5.996;2023-05-02T15:59:12;14.20;87.10
20416;DHT22;10367;52.202;5.996;2023-05-02T16:01:41;14.40;87.20
20416;DHT22;10367;52.202;5.996;2023-05-02T16:04:10;14.40;87.50